Terminal Aerodrome Forecast
Issued by NWS

Home | Current Version | Previous Version | Text Only | Print | Product List | Glossary On
Versions: 1 2 3 4 5 6 7 8 9 10 11 12 13 14 15 16 17 18 19 20 21 22 23
523
FTUS45 KGJT 132335
TAFCNY
TAF
KCNY 132335Z 1400/1424 33003KT P6SM BKN250
     FM140200 25003KT P6SM SCT150 OVC200
     FM141500 33006KT P6SM SCT100 OVC150
     FM142300 33010G20KT P6SM SCT200=

USA.gov is the U.S. government's official web portal to all federal, state and local government web resources and services.